createdAt,value
2022-12-04T00:01:21.107Z,95398.13
2022-12-04T00:03:47.718Z,95399.19
2022-12-04T00:06:19.594Z,95400.81
2022-12-04T00:08:47.733Z,95393.22
2022-12-04T00:11:17.282Z,95385.72
2022-12-04T00:13:44.261Z,95382.22
2022-12-04T00:16:18.933Z,95384.63
2022-12-04T00:18:45.553Z,95376.28
2022-12-04T00:21:14.409Z,95380.59
2022-12-04T00:23:41.614Z,95383.56
2022-12-04T00:26:14.623Z,95385.72
2022-12-04T00:28:42.245Z,95388.41
2022-12-04T00:31:11.638Z,95381.41
2022-12-04T00:33:38.651Z,95378.69
2022-12-04T00:36:12.601Z,95378.97
2022-12-04T00:38:40.255Z,95381.66
2022-12-04T00:41:12.025Z,95374.13
2022-12-04T00:43:38.944Z,95384.06
2022-12-04T00:46:05.838Z,95373.22
2022-12-04T00:48:32.466Z,95368.41
2022-12-04T00:51:08.244Z,95369.53
2022-12-04T00:53:34.954Z,95373.28
2022-12-04T00:56:11.162Z,95376.22
2022-12-04T00:58:37.884Z,95371.66
2022-12-04T01:01:10.222Z,95375.75
2022-12-04T01:03:37.171Z,95373.88
2022-12-04T01:06:04.519Z,95364.63
2022-12-04T01:08:31.884Z,95362.25
2022-12-04T01:10:58.925Z,95362.00
2022-12-04T01:13:26.564Z,95370.59
2022-12-04T01:15:53.245Z,95361.44
2022-12-04T01:18:19.792Z,95369.25
2022-12-04T01:20:51.111Z,95370.59
2022-12-04T01:23:18.659Z,95371.69
2022-12-04T01:25:54.048Z,95370.88
2022-12-04T01:28:20.950Z,95363.88
2022-12-04T01:31:03.613Z,95364.09
2022-12-04T01:33:30.786Z,95369.25
2022-12-04T01:35:59.268Z,95360.91
2022-12-04T01:38:26.502Z,95373.28
2022-12-04T01:40:53.890Z,95358.44
2022-12-04T01:43:21.181Z,95360.84
2022-12-04T01:45:50.720Z,95364.59
2022-12-04T01:48:20.316Z,95374.31
2022-12-04T01:50:49.605Z,95368.66
2022-12-04T01:53:16.725Z,95370.34
2022-12-04T01:55:44.441Z,95368.66
2022-12-04T01:58:11.381Z,95369.47
2022-12-04T02:00:38.102Z,95367.31
2022-12-04T02:03:04.936Z,95367.31
2022-12-04T02:17:08.810Z,95373.19
2022-12-04T02:19:47.618Z,95375.59
2022-12-04T02:22:52.962Z,95375.31
2022-12-04T02:25:25.099Z,95372.06
2022-12-04T02:28:00.754Z,95372.59
2022-12-04T02:30:29.205Z,95366.63
2022-12-04T02:33:15.978Z,95374.75
2022-12-04T02:36:20.772Z,95378.50
2022-12-04T02:39:00.215Z,95372.88
2022-12-04T02:41:35.085Z,95373.16
2022-12-04T02:44:22.239Z,95373.16
2022-12-04T02:46:54.893Z,95373.63
2022-12-04T02:49:27.941Z,95370.16
2022-12-04T02:51:58.440Z,95374.47
2022-12-04T02:54:34.630Z,95375.25
2022-12-04T02:57:04.855Z,95381.75
2022-12-04T02:59:38.090Z,95380.66
2022-12-04T03:02:10.806Z,95383.84
2022-12-04T03:04:39.843Z,95375.78
2022-12-04T03:07:17.733Z,95377.09
2022-12-04T03:09:54.744Z,95381.13
2022-12-04T03:12:38.079Z,95376.56
2022-12-04T03:15:33.069Z,95368.72
2022-12-04T03:18:16.706Z,95373.06
2022-12-04T03:20:46.774Z,95378.44
2022-12-04T03:23:18.618Z,95379.78
2022-12-04T03:26:20.425Z,95380.31
2022-12-04T03:29:00.297Z,95376.53
2022-12-04T03:31:45.576Z,95381.63
2022-12-04T03:34:15.841Z,95373.53
2022-12-04T03:36:55.297Z,95364.63
2022-12-04T03:39:30.771Z,95373.28
2022-12-04T03:42:22.353Z,95365.97
2022-12-04T03:44:54.263Z,95362.22
2022-12-04T03:47:36.925Z,95369.19
2022-12-04T03:50:08.694Z,95390.69
2022-12-04T03:52:42.870Z,95370.53
2022-12-04T03:55:31.083Z,95370.53
2022-12-04T03:58:03.204Z,95367.06
2022-12-04T04:00:32.742Z,95369.16
2022-12-04T04:03:06.982Z,95362.16
2022-12-04T04:05:36.986Z,95367.78
2022-12-04T04:08:25.259Z,95366.16
2022-12-04T04:10:55.471Z,95363.47
2022-12-04T04:13:46.424Z,95364.59
2022-12-04T04:16:35.421Z,95359.44
2022-12-04T04:19:21.540Z,95364.84
2022-12-04T04:22:09.576Z,95359.16
2022-12-04T04:25:01.023Z,95363.00
2022-12-04T04:27:27.582Z,95362.44
2022-12-04T04:29:54.765Z,95351.38
2022-12-04T04:32:24.413Z,95355.69
2022-12-04T04:35:00.690Z,95357.28
2022-12-04T04:37:57.833Z,95344.88
2022-12-04T04:40:33.349Z,95350.81
2022-12-04T04:43:20.928Z,95348.59
2022-12-04T04:45:53.960Z,95354.50
2022-12-04T04:48:32.724Z,95366.34
2022-12-04T04:51:00.913Z,95363.41
2022-12-04T04:53:33.529Z,95353.19
2022-12-04T04:56:00.185Z,95357.00
2022-12-04T04:58:26.732Z,95362.94
2022-12-04T05:01:01.898Z,95361.28
2022-12-04T05:03:29.825Z,95357.25
2022-12-04T05:05:56.413Z,95363.66
2022-12-04T05:08:23.568Z,95353.97
2022-12-04T05:10:50.839Z,95359.97
2022-12-04T05:13:18.447Z,95365.63
2022-12-04T05:16:06.118Z,95369.84
2022-12-04T05:18:34.618Z,95368.13
2022-12-04T05:21:16.661Z,95378.97
2022-12-04T05:23:43.731Z,95368.50
2022-12-04T05:26:10.309Z,95373.66
2022-12-04T05:28:36.937Z,95367.56
2022-12-04T05:31:04.943Z,95365.34
2022-12-04T05:33:31.522Z,95366.50
2022-12-04T05:35:59.027Z,95365.06
2022-12-04T05:38:25.715Z,95376.31
2022-12-04T05:40:52.426Z,95380.41
2022-12-04T05:43:19.147Z,95370.69
2022-12-04T05:45:46.037Z,95368.28
2022-12-04T05:48:13.860Z,95372.06
2022-12-04T05:50:40.376Z,95374.22
2022-12-04T05:53:06.993Z,95376.31
2022-12-04T05:55:33.580Z,95387.13
2022-12-04T05:58:00.703Z,95376.63
2022-12-04T06:00:27.450Z,95386.09
2022-12-04T06:02:54.020Z,95380.06
2022-12-04T06:05:20.838Z,95385.47
2022-12-04T06:07:47.454Z,95380.25
2022-12-04T06:10:14.047Z,95380.84
2022-12-04T06:12:40.609Z,95375.41
2022-12-04T06:15:07.587Z,95371.16
2022-12-04T06:17:34.158Z,95374.91
2022-12-04T06:20:01.060Z,95388.41
2022-12-04T06:22:28.022Z,95381.91
2022-12-04T06:24:54.532Z,95396.94
2022-12-04T06:27:28.820Z,95379.19
2022-12-04T06:29:56.037Z,95397.75
2022-12-04T06:32:22.875Z,95391.03
2022-12-04T06:34:53.897Z,95398.50
2022-12-04T06:37:25.142Z,95402.81
2022-12-04T06:39:51.679Z,95403.63
2022-12-04T06:42:18.413Z,95413.06
2022-12-04T06:44:45.053Z,95410.13
2022-12-04T06:47:11.621Z,95424.44
2022-12-04T06:49:38.172Z,95425.03
2022-12-04T06:52:04.754Z,95415.91
2022-12-04T06:54:31.320Z,95416.72
2022-12-04T06:56:57.855Z,95409.75
2022-12-04T06:59:24.414Z,95397.41
2022-12-04T07:01:51.060Z,95393.63
2022-12-04T07:04:17.811Z,95391.34
2022-12-04T07:06:44.341Z,95392.97
2022-12-04T07:09:14.925Z,95401.13
2022-12-04T07:11:43.000Z,95390.28
2022-12-04T07:14:10.504Z,95389.78
2022-12-04T07:16:41.051Z,95388.09
2022-12-04T07:19:09.564Z,95382.50
2022-12-04T07:21:36.109Z,95379.22
2022-12-04T07:24:02.855Z,95380.59
2022-12-04T07:26:30.616Z,95381.75
2022-12-04T07:28:58.263Z,95383.88
2022-12-04T07:31:27.981Z,95375.81
2022-12-04T07:33:55.476Z,95380.59
2022-12-04T07:36:23.534Z,95390.84
2022-12-04T07:38:50.810Z,95388.25
2022-12-04T07:41:18.177Z,95398.03
2022-12-04T07:43:45.105Z,95386.47
2022-12-04T07:46:31.975Z,95399.06
2022-12-04T07:48:59.179Z,95392.31
2022-12-04T07:51:28.427Z,95395.81
2022-12-04T07:54:02.075Z,95395.31
2022-12-04T07:56:30.018Z,95383.47
2022-12-04T07:58:56.597Z,95389.69
2022-12-04T08:01:24.045Z,95388.50
2022-12-04T08:03:53.340Z,95397.44
2022-12-04T08:06:22.910Z,95404.75
2022-12-04T08:08:50.486Z,95397.78
2022-12-04T08:11:22.187Z,95407.94
2022-12-04T08:13:53.630Z,95391.25
2022-12-04T08:16:20.237Z,95407.47
2022-12-04T08:18:48.612Z,95395.66
2022-12-04T08:21:22.565Z,95406.31
2022-12-04T08:23:53.670Z,95400.28
2022-12-04T08:26:22.397Z,95402.91
2022-12-04T08:28:49.297Z,95405.94
2022-12-04T08:31:19.109Z,95405.47
2022-12-04T08:33:47.515Z,95406.56
2022-12-04T08:36:16.761Z,95411.06
2022-12-04T08:38:43.517Z,95412.94
2022-12-04T08:41:13.343Z,95411.88
2022-12-04T08:43:40.344Z,95427.56
2022-12-04T08:46:10.208Z,95432.94
2022-12-04T08:48:37.198Z,95434.16
2022-12-04T08:51:04.760Z,95421.13
2022-12-04T08:53:32.121Z,95408.47
2022-12-04T08:56:01.496Z,95405.94
2022-12-04T08:58:28.164Z,95413.56
2022-12-04T09:00:54.678Z,95410.88
2022-12-04T09:03:27.571Z,95416.38
2022-12-04T09:06:00.482Z,95431.38
2022-12-04T09:08:27.958Z,95422.19
2022-12-04T09:10:54.614Z,95434.78
2022-12-04T09:13:21.175Z,95436.69
2022-12-04T09:15:47.783Z,95441.06
2022-12-04T09:18:14.472Z,95432.50
2022-12-04T09:20:41.033Z,95439.19
2022-12-04T09:23:07.782Z,95446.44
2022-12-04T09:25:37.876Z,95452.16
2022-12-04T09:28:04.819Z,95458.94
2022-12-04T09:30:31.657Z,95466.66
2022-12-04T09:32:58.188Z,95467.22
2022-12-04T09:35:24.734Z,95463.72
2022-12-04T09:37:51.326Z,95468.09
2022-12-04T09:40:39.582Z,95470.34
2022-12-04T09:43:29.210Z,95464.78
2022-12-04T09:46:02.347Z,95463.78
2022-12-04T09:48:34.684Z,95457.13
2022-12-04T09:51:03.250Z,95450.31
2022-12-04T09:53:56.009Z,95450.81
2022-12-04T09:56:25.629Z,95442.25
2022-12-04T09:59:26.885Z,95444.94
2022-12-04T10:02:30.855Z,95433.66
2022-12-04T10:04:57.504Z,95432.03
2022-12-04T10:07:36.884Z,95427.34
2022-12-04T10:10:35.542Z,95433.19
2022-12-04T10:13:44.205Z,95424.81
2022-12-04T10:16:28.373Z,95428.41
2022-12-04T10:19:13.742Z,95420.63
2022-12-04T10:21:43.005Z,95420.34
2022-12-04T10:24:21.461Z,95422.53
2022-12-04T10:26:48.991Z,95424.09
2022-12-04T10:29:22.730Z,95413.84
2022-12-04T10:31:51.821Z,95412.78
2022-12-04T10:34:29.678Z,95408.16
2022-12-04T10:37:01.801Z,95412.56
2022-12-04T10:39:38.941Z,95403.44
2022-12-04T10:42:26.983Z,95406.91
2022-12-04T10:44:54.199Z,95396.16
2022-12-04T10:47:23.938Z,95400.38
2022-12-04T10:49:59.648Z,95399.59
2022-12-04T10:52:26.685Z,95399.28
2022-12-04T10:55:01.472Z,95401.53
2022-12-04T10:57:45.874Z,95388.47
2022-12-04T11:00:35.229Z,95388.88
2022-12-04T11:03:08.519Z,95388.47
2022-12-04T11:05:52.924Z,95381.25
2022-12-04T11:08:27.063Z,95381.75
2022-12-04T11:11:07.673Z,95380.66
2022-12-04T11:13:34.511Z,95385.56
2022-12-04T11:16:01.269Z,95382.06
2022-12-04T11:18:33.662Z,95383.66
2022-12-04T11:21:05.417Z,95375.03
2022-12-04T11:23:35.666Z,95373.94
2022-12-04T11:26:06.300Z,95372.88
2022-12-04T11:28:43.086Z,95376.66
2022-12-04T11:31:16.312Z,95370.66
2022-12-04T11:33:50.033Z,95367.06
2022-12-04T11:36:33.610Z,95361.50
2022-12-04T11:39:40.797Z,95356.09
2022-12-04T11:42:13.236Z,95352.09
2022-12-04T11:44:49.322Z,95358.03
2022-12-04T11:47:18.315Z,95359.94
2022-12-04T11:49:45.229Z,95355.94
2022-12-04T11:52:25.463Z,95347.88
2022-12-04T11:55:02.193Z,95340.84
2022-12-04T11:57:43.053Z,95334.09
2022-12-04T12:00:21.794Z,95330.91
2022-12-04T12:03:20.598Z,95338.13
2022-12-04T12:06:09.177Z,95343.28
2022-12-04T12:08:50.709Z,95338.41
2022-12-04T12:11:26.716Z,95334.97
2022-12-04T12:13:56.219Z,95338.50
2022-12-04T12:16:51.274Z,95344.97
2022-12-04T12:19:42.734Z,95332.88
2022-12-04T12:22:12.144Z,95339.81
2022-12-04T12:25:16.276Z,95349.28
2022-12-04T12:28:01.326Z,95334.31
2022-12-04T12:30:37.245Z,95339.97
2022-12-04T12:33:12.631Z,95333.03
2022-12-04T12:35:47.940Z,95336.88
2022-12-04T12:38:19.737Z,95342.78
2022-12-04T12:40:55.581Z,95351.97
2022-12-04T12:43:32.982Z,95356.25
2022-12-04T12:46:16.849Z,95357.84
2022-12-04T12:48:57.923Z,95350.66
2022-12-04T12:51:33.925Z,95346.06
2022-12-04T12:54:31.400Z,95353.56
2022-12-04T12:57:24.631Z,95347.66
2022-12-04T13:00:06.239Z,95345.47
2022-12-04T13:02:54.429Z,95342.50
2022-12-04T13:05:27.756Z,95339.59
2022-12-04T13:08:25.337Z,95339.59
2022-12-04T13:11:16.045Z,95332.00
2022-12-04T13:14:03.990Z,95337.97
2022-12-04T13:16:41.765Z,95340.66
2022-12-04T13:19:31.132Z,95330.41
2022-12-04T13:22:06.479Z,95334.47
2022-12-04T13:25:11.189Z,95328.78
2022-12-04T13:27:59.341Z,95322.41
2022-12-04T13:31:07.360Z,95335.81
2022-12-04T13:34:12.105Z,95330.22
2022-12-04T13:36:48.792Z,95329.47
2022-12-04T13:39:40.759Z,95325.69
2022-12-04T13:42:22.005Z,95333.50
2022-12-04T13:44:55.449Z,95339.09
2022-12-04T13:47:32.016Z,95329.44
2022-12-04T13:50:20.522Z,95338.88
2022-12-04T13:52:49.368Z,95333.16
2022-12-04T13:55:26.272Z,95349.59
2022-12-04T13:58:00.771Z,95339.66
2022-12-04T14:00:37.984Z,95343.41
2022-12-04T14:03:21.073Z,95343.47
2022-12-04T14:05:48.110Z,95347.19
2022-12-04T14:08:20.671Z,95346.13
2022-12-04T14:10:58.373Z,95358.00
2022-12-04T14:13:29.674Z,95349.19
2022-12-04T14:16:19.886Z,95337.56
2022-12-04T14:18:56.308Z,95349.66
2022-12-04T14:21:23.429Z,95336.53
2022-12-04T14:23:51.296Z,95344.06
2022-12-04T14:29:46.252Z,95333.84
2022-12-04T14:32:25.302Z,95347.59
2022-12-04T14:34:53.430Z,95340.22
2022-12-04T14:37:40.149Z,95345.09
2022-12-04T14:40:16.295Z,95335.44
2022-12-04T14:42:42.904Z,95327.31
2022-12-04T14:45:56.112Z,95330.28
2022-12-04T14:48:28.470Z,95342.16
2022-12-04T14:51:25.013Z,95334.31
2022-12-04T14:54:00.708Z,95342.16
2022-12-04T14:56:30.221Z,95339.19
2022-12-04T14:58:58.105Z,95334.09
2022-12-04T15:01:29.678Z,95334.38
2022-12-04T15:03:59.731Z,95335.97
2022-12-04T15:06:29.767Z,95336.00
2022-12-04T15:09:20.682Z,95326.00
2022-12-04T15:12:08.816Z,95325.69
2022-12-04T15:14:44.254Z,95330.56
2022-12-04T15:17:12.597Z,95332.44
2022-12-04T15:19:40.086Z,95332.16
2022-12-04T15:22:27.402Z,95326.00
2022-12-04T15:24:55.329Z,95327.63
2022-12-04T15:27:31.740Z,95332.53
2022-12-04T15:30:00.338Z,95330.59
2022-12-04T15:32:28.799Z,95331.41
2022-12-04T15:35:02.393Z,95337.38
2022-12-04T15:37:30.988Z,95327.94
2022-12-04T15:39:58.606Z,95335.44
2022-12-04T15:42:29.023Z,95332.72
2022-12-04T15:45:02.002Z,95331.16
2022-12-04T15:47:37.317Z,95342.72
2022-12-04T15:50:20.337Z,95339.78
2022-12-04T15:52:57.253Z,95346.81
2022-12-04T15:55:25.210Z,95343.53
2022-12-04T15:58:02.060Z,95340.25
2022-12-04T16:00:37.856Z,95343.25
2022-12-04T16:03:42.671Z,95347.00
2022-12-04T16:06:27.526Z,95344.38
2022-12-04T16:08:55.608Z,95341.69
2022-12-04T16:11:22.116Z,95341.97
2022-12-04T16:14:17.585Z,95333.88
2022-12-04T16:16:50.174Z,95335.22
2022-12-04T16:19:33.581Z,95339.25
2022-12-04T16:22:03.045Z,95332.78
2022-12-04T16:24:29.686Z,95324.22
2022-12-04T16:26:58.759Z,95327.41
2022-12-04T16:29:25.461Z,95334.94
2022-12-04T16:31:52.097Z,95333.88
2022-12-04T16:34:18.950Z,95342.50
2022-12-04T16:36:45.556Z,95343.28
2022-12-04T16:39:12.093Z,95354.34
2022-12-04T16:41:40.012Z,95341.97
2022-12-04T16:44:13.427Z,95351.91
2022-12-04T16:46:40.384Z,95355.16
2022-12-04T16:49:07.775Z,95355.69
2022-12-04T16:51:37.559Z,95355.44
2022-12-04T16:54:04.265Z,95363.50
2022-12-04T16:56:30.802Z,95355.72
2022-12-04T16:58:57.381Z,95359.75
2022-12-04T17:01:27.560Z,95354.38
2022-12-04T17:03:54.297Z,95359.50
2022-12-04T17:06:21.192Z,95363.00
2022-12-04T17:08:47.752Z,95360.91
2022-12-04T17:11:16.731Z,95354.94
2022-12-04T17:13:43.529Z,95361.09
2022-12-04T17:16:14.025Z,95361.91
2022-12-04T17:18:41.514Z,95356.31
2022-12-04T17:21:09.701Z,95359.81
2022-12-04T17:23:36.685Z,95365.75
2022-12-04T17:26:04.956Z,95364.13
2022-12-04T17:28:32.121Z,95365.50
2022-12-04T17:30:59.120Z,95359.59
2022-12-04T17:33:25.836Z,95363.09
2022-12-04T17:35:54.098Z,95357.97
2022-12-04T17:38:20.916Z,95356.63
2022-12-04T17:40:58.786Z,95349.34
2022-12-04T17:43:25.588Z,95355.81
2022-12-04T17:45:52.184Z,95343.69
2022-12-04T17:48:18.743Z,95359.03
2022-12-04T17:50:45.419Z,95356.63
2022-12-04T17:53:11.933Z,95359.88
2022-12-04T17:55:38.513Z,95355.59
2022-12-04T17:58:05.045Z,95362.03
2022-12-04T18:00:31.769Z,95364.19
2022-12-04T18:02:58.452Z,95367.69
2022-12-04T18:05:25.046Z,95371.47
2022-12-04T18:07:51.739Z,95367.41
2022-12-04T18:10:18.332Z,95366.34
2022-12-04T18:12:44.846Z,95375.50
2022-12-04T18:15:11.426Z,95375.78
2022-12-04T18:17:39.655Z,95370.13
2022-12-04T18:20:08.240Z,95377.13
2022-12-04T18:22:34.920Z,95371.47
2022-12-04T18:25:01.500Z,95378.22
2022-12-04T18:27:28.055Z,95369.06
2022-12-04T18:29:54.908Z,95372.56
2022-12-04T18:32:21.634Z,95376.19
2022-12-04T18:34:48.194Z,95375.59
2022-12-04T18:37:14.731Z,95389.56
2022-12-04T18:39:41.328Z,95383.91
2022-12-04T18:42:07.824Z,95379.84
2022-12-04T18:44:34.360Z,95381.19
2022-12-04T18:47:00.860Z,95386.59
2022-12-04T18:49:27.449Z,95382.28
2022-12-04T18:51:53.964Z,95390.38
2022-12-04T18:54:23.704Z,95400.84
2022-12-04T18:56:50.944Z,95399.81
2022-12-04T18:59:20.080Z,95395.50
2022-12-04T19:01:46.710Z,95397.63
2022-12-04T19:04:16.712Z,95403.59
2022-12-04T19:06:46.066Z,95399.31
2022-12-04T19:09:15.690Z,95409.00
2022-12-04T19:11:42.790Z,95410.31
2022-12-04T19:14:20.685Z,95403.06
2022-12-04T19:16:49.260Z,95408.97
2022-12-04T19:19:15.964Z,95412.75
2022-12-04T19:21:42.664Z,95406.81
2022-12-04T19:24:10.465Z,95418.97
2022-12-04T19:26:37.222Z,95412.22
2022-12-04T19:29:05.205Z,95417.34
2022-12-04T19:31:36.782Z,95420.59
2022-12-04T19:34:04.401Z,95415.44
2022-12-04T19:36:32.427Z,95420.81
2022-12-04T19:39:00.293Z,95418.66
2022-12-04T19:41:30.144Z,95422.19
2022-12-04T19:43:59.818Z,95424.06
2022-12-04T19:46:29.123Z,95411.13
2022-12-04T19:48:58.679Z,95418.97
2022-12-04T19:51:26.088Z,95419.78
2022-12-04T19:53:53.989Z,95428.41
2022-12-04T19:56:24.292Z,95419.78
2022-12-04T19:58:52.379Z,95423.31
2022-12-04T20:01:21.726Z,95421.19
2022-12-04T20:03:48.241Z,95430.06
2022-12-04T20:06:20.300Z,95424.69
2022-12-04T20:08:48.124Z,95432.50
2022-12-04T20:11:18.145Z,95440.31
2022-12-04T20:13:46.786Z,95427.63
2022-12-04T20:16:16.783Z,95433.84
2022-12-04T20:18:44.541Z,95433.84
2022-12-04T20:21:12.607Z,95441.38
2022-12-04T20:23:46.365Z,95433.31
2022-12-04T20:26:14.312Z,95434.13
2022-12-04T20:28:41.539Z,95443.03
2022-12-04T20:31:16.403Z,95437.66
2022-12-04T20:33:43.996Z,95434.69
2022-12-04T20:36:11.049Z,95436.88
2022-12-04T20:38:38.044Z,95437.69
2022-12-04T20:41:10.369Z,95440.13
2022-12-04T20:43:37.125Z,95436.59
2022-12-04T20:46:15.668Z,95437.97
2022-12-04T20:48:48.184Z,95454.13
2022-12-04T20:51:23.896Z,95452.81
2022-12-04T20:53:51.838Z,95450.09
2022-12-04T20:56:19.497Z,95447.38
2022-12-04T20:58:46.294Z,95448.44
2022-12-04T21:01:15.714Z,95449.50
2022-12-04T21:03:43.354Z,95449.53
2022-12-04T21:06:19.169Z,95456.25
2022-12-04T21:08:58.613Z,95457.34
2022-12-04T21:11:30.740Z,95457.06
2022-12-04T21:14:17.894Z,95455.44
2022-12-04T21:16:44.874Z,95463.00
2022-12-04T21:19:14.345Z,95456.03
2022-12-04T21:21:40.961Z,95456.56
2022-12-04T21:24:10.026Z,95458.44
2022-12-04T21:26:36.735Z,95463.00
2022-12-04T21:29:04.843Z,95463.28
2022-12-04T21:34:14.651Z,95469.75
2022-12-04T21:36:41.621Z,95460.03
2022-12-04T21:39:08.919Z,95461.41
2022-12-04T21:41:54.313Z,95457.06
2022-12-04T21:44:21.699Z,95454.09
2022-12-04T21:46:49.369Z,95454.91
2022-12-04T21:49:17.736Z,95463.81
2022-12-04T21:52:00.017Z,95460.84
2022-12-04T21:54:27.841Z,95463.53
2022-12-04T21:56:54.958Z,95463.75
2022-12-04T21:59:21.607Z,95460.25
2022-12-04T22:01:48.303Z,95461.06
2022-12-04T22:04:15.195Z,95461.31
2022-12-04T22:06:42.076Z,95451.63
2022-12-04T22:09:10.912Z,95454.88
2022-12-04T22:11:38.513Z,95461.91
2022-12-04T22:14:05.044Z,95468.91
2022-12-04T22:16:34.635Z,95464.03
2022-12-04T22:19:04.264Z,95457.03
2022-12-04T22:21:30.870Z,95464.03
2022-12-04T22:23:59.002Z,95462.69
2022-12-04T22:26:27.040Z,95462.97
2022-12-04T22:28:53.700Z,95464.03
2022-12-04T22:31:22.401Z,95473.72
2022-12-04T22:33:50.976Z,95467.00
2022-12-04T22:36:21.282Z,95467.00
2022-12-04T22:39:08.297Z,95472.94
2022-12-04T22:41:34.996Z,95476.16
2022-12-04T22:44:01.509Z,95478.03
2022-12-04T22:46:28.090Z,95476.41
2022-12-04T22:48:54.703Z,95481.53
2022-12-04T22:51:22.066Z,95482.91
2022-12-04T22:53:54.109Z,95483.16
2022-12-04T22:56:24.777Z,95475.91
2022-12-04T22:58:52.127Z,95485.91
2022-12-04T23:01:24.772Z,95478.06
2022-12-04T23:03:52.216Z,95479.13
2022-12-04T23:06:20.504Z,95469.97
2022-12-04T23:08:47.337Z,95485.06
2022-12-04T23:11:17.535Z,95481.25
2022-12-04T23:13:49.181Z,95483.41
2022-12-04T23:16:20.008Z,95487.19
2022-12-04T23:18:47.291Z,95480.19
2022-12-04T23:21:14.899Z,95491.22
2022-12-04T23:23:44.029Z,95492.59
2022-12-04T23:26:16.924Z,95482.34
2022-12-04T23:28:44.016Z,95486.13
2022-12-04T23:31:11.143Z,95485.84
2022-12-04T23:33:38.483Z,95489.63
2022-12-04T23:36:06.315Z,95495.06
2022-12-04T23:38:35.463Z,95483.16
2022-12-04T23:41:07.562Z,95485.09
2022-12-04T23:43:35.332Z,95489.09
2022-12-04T23:46:05.884Z,95488.59
2022-12-04T23:48:35.658Z,95494.25
2022-12-04T23:51:02.367Z,95484.81
2022-12-04T23:53:28.960Z,95488.03
2022-12-04T23:56:02.286Z,95489.38
2022-12-04T23:58:28.876Z,95488.03
